Time,TemperatureF,DewpointF,PressureIn,WindDirection,WindDirectionDegrees,WindSpeedMPH,WindSpeedGustMPH,Humidity,HourlyPrecipIn,Conditions,Clouds,dailyrainin,SoftwareType,DateUTC
2013-01-30 00:00:00,47.0,41.1,30.13,ENE,59,0.0,0.0,80,0.00,,,0.00,Wunderground v.1.15,2013-01-30 08:00:00,
2013-01-30 00:05:00,46.9,41.1,30.13,ENE,59,0.0,0.0,80,0.00,,,0.00,Wunderground v.1.15,2013-01-30 08:05:00,
2013-01-30 00:15:00,46.7,40.9,30.12,ENE,59,0.0,0.0,80,0.00,,,0.00,Wunderground v.1.15,2013-01-30 08:15:00,
2013-01-30 00:25:00,46.5,41.0,30.12,ENE,59,0.0,0.0,81,0.00,,,0.00,Wunderground v.1.15,2013-01-30 08:25:00,
2013-01-30 00:35:00,46.4,41.2,30.12,ENE,59,0.0,0.0,82,0.00,,,0.00,Wunderground v.1.15,2013-01-30 08:35:00,
2013-01-30 00:45:00,46.3,41.1,30.12,ENE,59,0.0,0.0,82,0.00,,,0.00,Wunderground v.1.15,2013-01-30 08:45:00,
2013-01-30 00:50:00,46.2,40.7,30.12,ENE,59,0.0,0.0,81,0.00,,,0.00,Wunderground v.1.15,2013-01-30 08:50:00,
2013-01-30 01:00:00,45.9,40.4,30.12,ENE,59,0.0,0.0,81,0.00,,,0.00,Wunderground v.1.15,2013-01-30 09:00:00,
2013-01-30 01:10:00,45.7,40.2,30.12,ENE,59,0.0,0.0,81,0.00,,,0.00,Wunderground v.1.15,2013-01-30 09:10:00,
2013-01-30 01:20:00,45.4,40.2,30.12,ESE,113,0.0,1.0,82,0.00,,,0.00,Wunderground v.1.15,2013-01-30 09:20:00,
2013-01-30 01:30:00,45.3,40.4,30.12,NNE,15,0.0,0.0,83,0.00,,,0.00,Wunderground v.1.15,2013-01-30 09:30:00,
2013-01-30 01:35:00,45.2,40.3,30.12,NNE,15,0.0,0.0,83,0.00,,,0.00,Wunderground v.1.15,2013-01-30 09:35:00,
2013-01-30 01:46:00,45.0,40.1,30.12,NNE,15,0.0,0.0,83,0.00,,,0.00,Wunderground v.1.15,2013-01-30 09:46:00,
2013-01-30 01:56:00,44.9,40.0,30.12,NW,319,0.0,0.0,83,0.00,,,0.00,Wunderground v.1.15,2013-01-30 09:56:00,
2013-01-30 02:01:00,44.8,40.0,30.12,NW,311,0.0,0.0,83,0.00,,,0.00,Wunderground v.1.15,2013-01-30 10:01:00,
2013-01-30 02:11:00,44.6,39.8,30.12,NW,311,0.0,0.0,83,0.00,,,0.00,Wunderground v.1.15,2013-01-30 10:11:00,
2013-01-30 02:20:00,44.5,39.7,30.12,NW,311,0.0,0.0,83,0.00,,,0.00,Wunderground v.1.15,2013-01-30 10:20:00,
2013-01-30 02:26:00,44.5,39.7,30.12,NW,311,0.0,0.0,83,0.00,,,0.00,Wunderground v.1.15,2013-01-30 10:26:00,
2013-01-30 02:35:00,44.4,39.6,30.12,NW,311,0.0,0.0,83,0.00,,,0.00,Wunderground v.1.15,2013-01-30 10:35:00,
2013-01-30 02:45:00,44.3,39.5,30.12,NW,311,0.0,0.0,83,0.00,,,0.00,Wunderground v.1.15,2013-01-30 10:45:00,
2013-01-30 02:51:00,44.3,39.8,30.12,NW,311,0.0,0.0,84,0.00,,,0.00,Wunderground v.1.15,2013-01-30 10:51:00,
2013-01-30 03:01:00,44.3,39.8,30.11,NW,306,0.0,0.0,84,0.00,,,0.00,Wunderground v.1.15,2013-01-30 11:01:00,
2013-01-30 03:10:00,44.2,39.7,30.11,NW,306,0.0,0.0,84,0.00,,,0.00,Wunderground v.1.15,2013-01-30 11:10:00,
2013-01-30 03:20:00,44.2,39.7,30.11,WNW,295,0.0,0.0,84,0.00,,,0.00,Wunderground v.1.15,2013-01-30 11:20:00,
2013-01-30 03:30:00,44.1,39.6,30.11,WNW,295,0.0,0.0,84,0.00,,,0.00,Wunderground v.1.15,2013-01-30 11:30:00,
2013-01-30 03:35:00,44.0,39.5,30.10,WNW,295,0.0,0.0,84,0.00,,,0.00,Wunderground v.1.15,2013-01-30 11:35:00,
2013-01-30 03:45:00,43.9,39.1,30.10,WNW,295,0.0,0.0,83,0.00,,,0.00,Wunderground v.1.15,2013-01-30 11:45:00,
2013-01-30 03:55:00,43.6,38.8,30.10,WNW,295,0.0,0.0,83,0.00,,,0.00,Wunderground v.1.15,2013-01-30 11:55:00,
2013-01-30 04:00:00,43.4,38.9,30.09,WNW,295,0.0,0.0,84,0.00,,,0.00,Wunderground v.1.15,2013-01-30 12:00:00,
2013-01-30 04:10:00,43.3,39.1,30.09,WNW,295,0.0,0.0,85,0.00,,,0.00,Wunderground v.1.15,2013-01-30 12:10:00,
2013-01-30 04:20:00,43.3,39.1,30.09,WNW,295,0.0,0.0,85,0.00,,,0.00,Wunderground v.1.15,2013-01-30 12:20:00,
2013-01-30 04:25:00,43.3,39.1,30.09,WNW,295,0.0,0.0,85,0.00,,,0.00,Wunderground v.1.15,2013-01-30 12:25:00,
2013-01-30 04:35:00,43.4,39.2,30.08,WNW,293,0.0,0.0,85,0.00,,,0.00,Wunderground v.1.15,2013-01-30 12:35:00,
2013-01-30 04:45:00,43.4,39.2,30.08,WNW,293,0.0,0.0,85,0.00,,,0.00,Wunderground v.1.15,2013-01-30 12:45:00,
2013-01-30 04:55:00,43.6,39.4,30.09,WSW,254,0.0,0.0,85,0.00,,,0.00,Wunderground v.1.15,2013-01-30 12:55:00,
2013-01-30 05:00:00,43.7,39.5,30.08,SSE,168,0.0,0.0,85,0.00,,,0.00,Wunderground v.1.15,2013-01-30 13:00:00,
2013-01-30 05:05:00,43.7,39.5,30.08,SSE,168,0.0,0.0,85,0.00,,,0.00,Wunderground v.1.15,2013-01-30 13:05:00,
2013-01-30 05:15:00,43.9,39.7,30.08,SSE,168,0.0,0.0,85,0.00,,,0.00,Wunderground v.1.15,2013-01-30 13:15:00,
2013-01-30 05:25:00,43.9,39.4,30.08,SSE,168,0.0,0.0,84,0.00,,,0.00,Wunderground v.1.15,2013-01-30 13:25:00,
2013-01-30 05:35:00,44.0,39.5,30.08,SSE,168,0.0,0.0,84,0.00,,,0.00,Wunderground v.1.15,2013-01-30 13:35:00,
2013-01-30 05:45:00,44.0,39.5,30.08,SSE,168,0.0,0.0,84,0.00,,,0.00,Wunderground v.1.15,2013-01-30 13:45:00,
2013-01-30 05:50:00,44.0,39.5,30.08,SSE,168,0.0,0.0,84,0.00,,,0.00,Wunderground v.1.15,2013-01-30 13:50:00,
2013-01-30 06:00:00,43.9,39.4,30.08,SSE,168,0.0,0.0,84,0.00,,,0.00,Wunderground v.1.15,2013-01-30 14:00:00,
2013-01-30 06:10:00,43.7,39.2,30.08,SSE,168,0.0,0.0,84,0.00,,,0.00,Wunderground v.1.15,2013-01-30 14:10:00,
2013-01-30 06:20:00,43.6,39.1,30.08,SSE,168,0.0,0.0,84,0.00,,,0.00,Wunderground v.1.15,2013-01-30 14:20:00,
2013-01-30 06:30:00,43.5,39.0,30.08,SSE,164,0.0,0.0,84,0.00,,,0.00,Wunderground v.1.15,2013-01-30 14:30:00,
2013-01-30 06:40:00,43.3,38.8,30.09,SSE,157,0.0,0.0,84,0.00,,,0.00,Wunderground v.1.15,2013-01-30 14:40:00,
2013-01-30 06:46:00,43.2,38.4,30.10,SSE,156,0.0,0.0,83,0.00,,,0.00,Wunderground v.1.15,2013-01-30 14:46:00,
2013-01-30 06:56:00,43.1,38.3,30.10,SE,137,0.0,0.0,83,0.00,,,0.00,Wunderground v.1.15,2013-01-30 14:56:00,
2013-01-30 07:01:00,43.0,38.2,30.10,SE,137,0.0,0.0,83,0.00,,,0.00,Wunderground v.1.15,2013-01-30 15:01:00,
2013-01-30 07:06:00,42.9,38.1,30.10,SE,137,0.0,0.0,83,0.00,,,0.00,Wunderground v.1.15,2013-01-30 15:06:00,
2013-01-30 07:16:00,42.7,37.9,30.10,SE,137,0.0,0.0,83,0.00,,,0.00,Wunderground v.1.15,2013-01-30 15:16:00,
2013-01-30 07:26:00,42.5,37.7,30.11,SE,136,0.0,0.0,83,0.00,,,0.00,Wunderground v.1.15,2013-01-30 15:26:00,
2013-01-30 07:36:00,42.5,37.7,30.11,SE,136,0.0,0.0,83,0.00,,,0.00,Wunderground v.1.15,2013-01-30 15:36:00,
2013-01-30 07:46:00,42.3,37.8,30.12,ENE,61,0.0,0.0,84,0.00,,,0.00,Wunderground v.1.15,2013-01-30 15:46:00,
2013-01-30 07:56:00,42.2,37.7,30.11,ENE,68,0.0,0.0,84,0.00,,,0.00,Wunderground v.1.15,2013-01-30 15:56:00,
2013-01-30 08:01:00,42.2,37.7,30.11,ENE,68,0.0,0.0,84,0.00,,,0.00,Wunderground v.1.15,2013-01-30 16:01:00,
2013-01-30 08:11:00,42.2,37.7,30.12,ENE,68,0.0,0.0,84,0.00,,,0.00,Wunderground v.1.15,2013-01-30 16:11:00,
2013-01-30 08:20:00,42.2,38.0,30.12,ENE,68,0.0,0.0,85,0.00,,,0.00,Wunderground v.1.15,2013-01-30 16:20:00,
2013-01-30 08:30:00,43.2,39.0,30.12,ENE,67,0.0,0.0,85,0.00,,,0.00,Wunderground v.1.15,2013-01-30 16:30:00,
2013-01-30 08:41:00,44.3,39.5,30.12,NE,38,0.0,0.0,83,0.00,,,0.00,Wunderground v.1.15,2013-01-30 16:41:00,
2013-01-30 08:50:00,45.0,40.1,30.12,NE,40,0.0,0.0,83,0.00,,,0.00,Wunderground v.1.15,2013-01-30 16:50:00,
2013-01-30 09:00:00,46.1,40.3,30.12,NE,40,0.0,0.0,80,0.00,,,0.00,Wunderground v.1.15,2013-01-30 17:00:00,
2013-01-30 09:10:00,47.0,40.8,30.12,NE,39,0.0,0.0,79,0.00,,,0.00,Wunderground v.1.15,2013-01-30 17:10:00,
2013-01-30 09:20:00,48.5,42.0,30.12,NE,40,0.0,0.0,78,0.00,,,0.00,Wunderground v.1.15,2013-01-30 17:20:00,
2013-01-30 09:30:00,50.1,42.5,30.13,NE,40,0.0,0.0,75,0.00,,,0.00,Wunderground v.1.15,2013-01-30 17:30:00,
2013-01-30 09:40:00,49.9,41.6,30.12,North,355,0.0,0.0,73,0.00,,,0.00,Wunderground v.1.15,2013-01-30 17:40:00,
2013-01-30 09:50:00,50.0,41.7,30.13,NNE,23,0.0,0.0,73,0.00,,,0.00,Wunderground v.1.15,2013-01-30 17:50:00,
2013-01-30 09:55:00,50.7,42.7,30.13,NNE,24,0.0,0.0,74,0.00,,,0.00,Wunderground v.1.15,2013-01-30 17:55:00,
2013-01-30 10:00:00,51.2,42.5,30.12,NNE,24,0.0,0.0,72,0.00,,,0.00,Wunderground v.1.15,2013-01-30 18:00:00,
2013-01-30 10:10:00,52.9,43.0,30.13,NNE,26,0.0,0.0,69,0.00,,,0.00,Wunderground v.1.15,2013-01-30 18:10:00,
2013-01-30 10:20:00,53.9,43.6,30.13,NNE,26,0.0,0.0,68,0.00,,,0.00,Wunderground v.1.15,2013-01-30 18:20:00,
2013-01-30 10:30:00,53.4,43.5,30.14,NNE,28,0.0,1.0,69,0.00,,,0.00,Wunderground v.1.15,2013-01-30 18:30:00,
2013-01-30 10:40:00,53.5,43.6,30.14,NNE,28,0.0,0.0,69,0.00,,,0.00,Wunderground v.1.15,2013-01-30 18:40:00,
2013-01-30 10:45:00,54.1,43.4,30.14,NNE,32,0.0,0.0,67,0.00,,,0.00,Wunderground v.1.15,2013-01-30 18:45:00,
2013-01-30 10:55:00,55.9,44.3,30.13,NNE,26,0.0,0.0,65,0.00,,,0.00,Wunderground v.1.15,2013-01-30 18:55:00,
2013-01-30 11:00:00,54.9,44.9,30.13,NE,36,0.0,1.0,69,0.00,,,0.00,Wunderground v.1.15,2013-01-30 19:00:00,
2013-01-30 11:10:00,55.7,44.1,30.13,NE,39,0.0,0.0,65,0.00,,,0.00,Wunderground v.1.15,2013-01-30 19:10:00,
2013-01-30 11:20:00,55.9,44.7,30.13,NE,55,0.0,0.0,66,0.00,,,0.00,Wunderground v.1.15,2013-01-30 19:20:00,
2013-01-30 11:30:00,55.7,44.1,30.13,NE,55,0.0,0.0,65,0.00,,,0.00,Wunderground v.1.15,2013-01-30 19:30:00,
2013-01-30 11:35:00,56.0,44.4,30.12,ENE,60,0.0,1.0,65,0.00,,,0.00,Wunderground v.1.15,2013-01-30 19:35:00,
2013-01-30 11:45:00,57.6,45.1,30.12,NE,36,0.0,0.0,63,0.00,,,0.00,Wunderground v.1.15,2013-01-30 19:45:00,
2013-01-30 11:55:00,58.2,44.8,30.11,NE,53,0.0,0.0,61,0.00,,,0.00,Wunderground v.1.15,2013-01-30 19:55:00,
2013-01-30 12:00:00,58.4,44.6,30.11,NE,53,0.0,0.0,60,0.00,,,0.00,Wunderground v.1.15,2013-01-30 20:00:00,
2013-01-30 12:09:00,59.0,45.6,30.10,NE,54,0.0,1.0,61,0.00,,,0.00,Wunderground v.1.15,2013-01-30 20:09:00,
2013-01-30 12:15:00,59.6,44.8,30.10,ENE,57,0.0,1.0,58,0.00,,,0.00,Wunderground v.1.15,2013-01-30 20:15:00,
2013-01-30 12:25:00,59.7,45.3,30.09,ENE,57,0.0,0.0,59,0.00,,,0.00,Wunderground v.1.15,2013-01-30 20:25:00,
2013-01-30 12:34:00,59.8,45.0,30.09,NE,56,0.0,0.0,58,0.00,,,0.00,Wunderground v.1.15,2013-01-30 20:34:00,
2013-01-30 12:40:00,60.2,44.9,30.09,NE,56,0.0,0.0,57,0.00,,,0.00,Wunderground v.1.15,2013-01-30 20:40:00,
2013-01-30 12:46:00,60.2,44.9,30.08,NE,56,0.0,0.0,57,0.00,,,0.00,Wunderground v.1.15,2013-01-30 20:46:00,
2013-01-30 12:51:00,60.2,43.5,30.08,NE,56,0.0,0.0,54,0.00,,,0.00,Wunderground v.1.15,2013-01-30 20:51:00,
2013-01-30 13:01:00,60.4,44.6,30.08,NE,56,0.0,0.0,56,0.00,,,0.00,Wunderground v.1.15,2013-01-30 21:01:00,
2013-01-30 13:11:00,60.3,43.6,30.07,NE,56,0.0,0.0,54,0.00,,,0.00,Wunderground v.1.15,2013-01-30 21:11:00,
2013-01-30 13:21:00,60.4,43.7,30.07,NE,56,0.0,0.0,54,0.00,,,0.00,Wunderground v.1.15,2013-01-30 21:21:00,
2013-01-30 13:31:00,60.5,43.8,30.07,NE,56,0.0,0.0,54,0.00,,,0.00,Wunderground v.1.15,2013-01-30 21:31:00,
2013-01-30 13:40:00,60.6,44.3,30.06,NE,56,0.0,1.0,55,0.00,,,0.00,Wunderground v.1.15,2013-01-30 21:40:00,
2013-01-30 13:50:00,60.9,44.6,30.06,NE,56,0.0,0.0,55,0.00,,,0.00,Wunderground v.1.15,2013-01-30 21:50:00,
2013-01-30 13:55:00,61.1,44.3,30.06,NE,56,0.0,0.0,54,0.00,,,0.00,Wunderground v.1.15,2013-01-30 21:55:00,
2013-01-30 14:01:00,61.2,44.4,30.06,NE,56,0.0,2.0,54,0.00,,,0.00,Wunderground v.1.15,2013-01-30 22:01:00,
2013-01-30 14:10:00,61.7,45.8,30.05,North,9,0.0,0.0,56,0.00,,,0.00,Wunderground v.1.15,2013-01-30 22:10:00,
2013-01-30 14:20:00,62.1,46.2,30.05,East,97,1.0,1.0,56,0.00,,,0.00,Wunderground v.1.15,2013-01-30 22:20:00,
2013-01-30 14:30:00,62.5,46.1,30.05,East,96,0.0,0.0,55,0.00,,,0.00,Wunderground v.1.15,2013-01-30 22:30:00,
2013-01-30 14:40:00,62.8,45.4,30.05,East,98,0.0,0.0,53,0.00,,,0.00,Wunderground v.1.15,2013-01-30 22:40:00,
2013-01-30 14:50:00,62.9,45.0,30.05,ESE,103,1.0,1.0,52,0.00,,,0.00,Wunderground v.1.15,2013-01-30 22:50:00,
2013-01-30 15:01:00,63.0,45.1,30.05,East,87,0.0,0.0,52,0.00,,,0.00,Wunderground v.1.15,2013-01-30 23:01:00,
2013-01-30 15:10:00,63.0,44.6,30.05,SSE,150,1.0,1.0,51,0.00,,,0.00,Wunderground v.1.15,2013-01-30 23:10:00,
2013-01-30 15:20:00,63.1,44.7,30.04,ESE,103,0.0,0.0,51,0.00,,,0.00,Wunderground v.1.15,2013-01-30 23:20:00,
2013-01-30 15:25:00,63.1,44.2,30.04,ESE,107,0.0,0.0,50,0.00,,,0.00,Wunderground v.1.15,2013-01-30 23:25:00,
2013-01-30 15:35:00,63.1,44.7,30.04,ESE,107,0.0,0.0,51,0.00,,,0.00,Wunderground v.1.15,2013-01-30 23:35:00,
2013-01-30 15:45:00,62.9,44.5,30.04,ESE,107,0.0,0.0,51,0.00,,,0.00,Wunderground v.1.15,2013-01-30 23:45:00,
2013-01-30 15:55:00,62.7,44.8,30.04,ESE,109,0.0,1.0,52,0.00,,,0.00,Wunderground v.1.15,2013-01-30 23:55:00,
2013-01-30 16:00:00,62.7,44.8,30.04,ESE,111,0.0,0.0,52,0.00,,,0.00,Wunderground v.1.15,2013-01-31 00:00:00,
2013-01-30 16:10:00,62.6,45.7,30.04,East,92,0.0,0.0,54,0.00,,,0.00,Wunderground v.1.15,2013-01-31 00:10:00,
2013-01-30 16:20:00,62.5,45.1,30.04,SSE,164,0.0,0.0,53,0.00,,,0.00,Wunderground v.1.15,2013-01-31 00:20:00,
2013-01-30 16:30:00,62.5,45.1,30.05,SE,135,0.0,2.0,53,0.00,,,0.00,Wunderground v.1.15,2013-01-31 00:30:00,
2013-01-30 16:40:00,62.5,45.6,30.05,East,101,1.0,1.0,54,0.00,,,0.00,Wunderground v.1.15,2013-01-31 00:40:00,
2013-01-30 16:50:00,62.5,46.1,30.05,East,91,0.0,0.0,55,0.00,,,0.00,Wunderground v.1.15,2013-01-31 00:50:00,
2013-01-30 16:55:00,62.3,46.4,30.05,ESE,114,1.0,1.0,56,0.00,,,0.00,Wunderground v.1.15,2013-01-31 00:55:00,
2013-01-30 17:00:00,62.2,46.8,30.05,ESE,123,0.0,0.0,57,0.00,,,0.00,Wunderground v.1.15,2013-01-31 01:00:00,
2013-01-30 17:10:00,61.9,46.5,30.05,SE,143,0.0,0.0,57,0.00,,,0.00,Wunderground v.1.15,2013-01-31 01:10:00,
2013-01-30 17:15:00,61.7,46.3,30.05,SE,132,0.0,0.0,57,0.00,,,0.00,Wunderground v.1.15,2013-01-31 01:15:00,
2013-01-30 17:25:00,61.3,46.4,30.06,East,100,0.0,0.0,58,0.00,,,0.00,Wunderground v.1.15,2013-01-31 01:25:00,
2013-01-30 17:35:00,60.8,46.4,30.06,East,100,0.0,0.0,59,0.00,,,0.00,Wunderground v.1.15,2013-01-31 01:35:00,
2013-01-30 17:41:00,60.4,46.0,30.06,East,100,0.0,0.0,59,0.00,,,0.00,Wunderground v.1.15,2013-01-31 01:41:00,
2013-01-30 17:51:00,59.7,45.3,30.05,SE,137,0.0,0.0,59,0.00,,,0.00,Wunderground v.1.15,2013-01-31 01:51:00,
2013-01-30 18:01:00,59.0,44.7,30.06,ESE,109,0.0,0.0,59,0.00,,,0.00,Wunderground v.1.15,2013-01-31 02:01:00,
2013-01-30 18:11:00,59.0,46.0,30.06,ESE,109,0.0,0.0,62,0.00,,,0.00,Wunderground v.1.15,2013-01-31 02:11:00,
2013-01-30 18:21:00,58.2,45.2,30.06,ESE,111,0.0,0.0,62,0.00,,,0.00,Wunderground v.1.15,2013-01-31 02:21:00,
2013-01-30 18:31:00,57.5,44.6,30.06,ESE,111,0.0,0.0,62,0.00,,,0.00,Wunderground v.1.15,2013-01-31 02:31:00,
2013-01-30 18:36:00,57.2,44.3,30.07,ESE,111,0.0,0.0,62,0.00,,,0.00,Wunderground v.1.15,2013-01-31 02:36:00,
2013-01-30 18:45:00,56.6,44.1,30.07,ESE,111,0.0,0.0,63,0.00,,,0.00,Wunderground v.1.15,2013-01-31 02:45:00,
2013-01-30 18:51:00,56.3,43.9,30.07,ESE,111,0.0,0.0,63,0.00,,,0.00,Wunderground v.1.15,2013-01-31 02:51:00,
2013-01-30 19:01:00,55.9,43.5,30.07,ESE,111,0.0,0.0,63,0.00,,,0.00,Wunderground v.1.15,2013-01-31 03:01:00,
2013-01-30 19:10:00,55.5,43.1,30.07,ESE,111,0.0,0.0,63,0.00,,,0.00,Wunderground v.1.15,2013-01-31 03:10:00,
2013-01-30 19:15:00,55.3,43.3,30.07,ESE,111,0.0,0.0,64,0.00,,,0.00,Wunderground v.1.15,2013-01-31 03:15:00,
2013-01-30 19:25:00,54.6,43.5,30.06,ESE,111,0.0,0.0,66,0.00,,,0.00,Wunderground v.1.15,2013-01-31 03:25:00,
2013-01-30 19:35:00,53.8,43.5,30.06,ESE,111,0.0,0.0,68,0.00,,,0.00,Wunderground v.1.15,2013-01-31 03:35:00,
2013-01-30 19:40:00,53.6,44.4,30.06,ESE,111,0.0,0.0,71,0.00,,,0.00,Wunderground v.1.15,2013-01-31 03:40:00,
2013-01-30 19:50:00,53.0,44.2,30.07,ESE,111,0.0,0.0,72,0.00,,,0.00,Wunderground v.1.15,2013-01-31 03:50:00,
2013-01-30 20:00:00,52.4,44.4,30.07,ESE,111,0.0,0.0,74,0.00,,,0.00,Wunderground v.1.15,2013-01-31 04:00:00,
2013-01-30 20:05:00,52.2,44.5,30.06,ESE,111,0.0,0.0,75,0.00,,,0.00,Wunderground v.1.15,2013-01-31 04:05:00,
2013-01-30 20:15:00,51.8,44.5,30.07,ESE,111,0.0,0.0,76,0.00,,,0.00,Wunderground v.1.15,2013-01-31 04:15:00,
2013-01-30 20:25:00,51.2,43.9,30.07,ESE,111,0.0,0.0,76,0.00,,,0.00,Wunderground v.1.15,2013-01-31 04:25:00,
2013-01-30 20:35:00,50.8,44.2,30.07,ESE,111,0.0,0.0,78,0.00,,,0.00,Wunderground v.1.15,2013-01-31 04:35:00,
2013-01-30 20:45:00,50.3,43.7,30.07,ESE,111,0.0,0.0,78,0.00,,,0.00,Wunderground v.1.15,2013-01-31 04:45:00,
2013-01-30 20:55:00,49.8,43.2,30.07,ESE,111,0.0,0.0,78,0.00,,,0.00,Wunderground v.1.15,2013-01-31 04:55:00,
2013-01-30 21:00:00,49.6,43.4,30.07,ESE,111,0.0,0.0,79,0.00,,,0.00,Wunderground v.1.15,2013-01-31 05:00:00,
2013-01-30 21:05:00,49.4,43.2,30.07,ESE,111,0.0,0.0,79,0.00,,,0.00,Wunderground v.1.15,2013-01-31 05:05:00,
2013-01-30 21:15:00,48.9,43.0,30.07,ESE,111,0.0,0.0,80,0.00,,,0.00,Wunderground v.1.15,2013-01-31 05:15:00,
2013-01-30 21:20:00,48.7,42.8,30.07,ESE,111,0.0,0.0,80,0.00,,,0.00,Wunderground v.1.15,2013-01-31 05:20:00,
2013-01-30 21:30:00,48.3,42.7,30.07,ESE,111,0.0,0.0,81,0.00,,,0.00,Wunderground v.1.15,2013-01-31 05:30:00,
2013-01-30 21:40:00,47.9,42.3,30.07,ESE,111,0.0,0.0,81,0.00,,,0.00,Wunderground v.1.15,2013-01-31 05:40:00,
2013-01-30 21:50:00,47.5,42.3,30.07,ESE,111,0.0,0.0,82,0.00,,,0.00,Wunderground v.1.15,2013-01-31 05:50:00,
2013-01-30 22:00:00,47.2,42.0,30.07,ESE,111,0.0,0.0,82,0.00,,,0.00,Wunderground v.1.15,2013-01-31 06:00:00,
2013-01-30 22:10:00,47.0,42.1,30.07,ESE,111,0.0,0.0,83,0.00,,,0.00,Wunderground v.1.15,2013-01-31 06:10:00,
2013-01-30 22:20:00,46.8,41.9,30.07,ESE,111,0.0,0.0,83,0.00,,,0.00,Wunderground v.1.15,2013-01-31 06:20:00,
2013-01-30 22:30:00,46.5,41.6,30.07,ESE,111,0.0,0.0,83,0.00,,,0.00,Wunderground v.1.15,2013-01-31 06:30:00,
2013-01-30 22:35:00,46.4,41.5,30.07,ESE,111,0.0,0.0,83,0.00,,,0.00,Wunderground v.1.15,2013-01-31 06:35:00,
2013-01-30 22:41:00,46.2,41.6,30.07,ESE,111,0.0,0.0,84,0.00,,,0.00,Wunderground v.1.15,2013-01-31 06:41:00,
2013-01-30 22:51:00,46.0,41.4,30.07,ESE,111,0.0,0.0,84,0.00,,,0.00,Wunderground v.1.15,2013-01-31 06:51:00,
2013-01-30 22:56:00,45.9,41.3,30.07,ESE,111,0.0,0.0,84,0.00,,,0.00,Wunderground v.1.15,2013-01-31 06:56:00,
2013-01-30 23:01:00,45.7,41.1,30.08,ESE,111,0.0,0.0,84,0.00,,,0.00,Wunderground v.1.15,2013-01-31 07:01:00,
2013-01-30 23:10:00,45.4,40.8,30.08,ESE,111,0.0,0.0,84,0.00,,,0.00,Wunderground v.1.15,2013-01-31 07:10:00,
2013-01-30 23:16:00,45.2,41.0,30.08,ESE,111,0.0,0.0,85,0.00,,,0.00,Wunderground v.1.15,2013-01-31 07:16:00,
2013-01-30 23:26:00,45.0,40.8,30.08,ESE,111,0.0,0.0,85,0.00,,,0.00,Wunderground v.1.15,2013-01-31 07:26:00,
2013-01-30 23:36:00,44.8,40.6,30.08,ESE,111,0.0,0.0,85,0.00,,,0.00,Wunderground v.1.15,2013-01-31 07:36:00,
2013-01-30 23:45:00,44.5,40.3,30.08,ESE,111,0.0,0.0,85,0.00,,,0.00,Wunderground v.1.15,2013-01-31 07:45:00,
2013-01-30 23:55:00,44.3,40.1,30.08,ESE,111,0.0,0.0,85,0.00,,,0.00,Wunderground v.1.15,2013-01-31 07:55:00,